sensor_id;sensor_type;location;lat;lon;timestamp;temperature;humidity
67133;HTU21D;54052;53.542;49.408;2022-10-30T00:00:21;3.18;91.81
67133;HTU21D;54052;53.542;49.408;2022-10-30T00:02:48;3.23;91.21
67133;HTU21D;54052;53.542;49.408;2022-10-30T00:05:14;3.16;91.33
67133;HTU21D;54052;53.542;49.408;2022-10-30T00:07:41;3.16;91.97
67133;HTU21D;54052;53.542;49.408;2022-10-30T00:10:08;3.14;91.85
67133;HTU21D;54052;53.542;49.408;2022-10-30T00:12:34;3.17;91.79
67133;HTU21D;54052;53.542;49.408;2022-10-30T00:15:00;3.13;91.69
67133;HTU21D;54052;53.542;49.408;2022-10-30T00:17:26;3.08;92.14
67133;HTU21D;54052;53.542;49.408;2022-10-30T00:19:52;3.13;91.87
67133;HTU21D;54052;53.542;49.408;2022-10-30T00:22:18;3.16;91.91
67133;HTU21D;54052;53.542;49.408;2022-10-30T00:24:44;3.17;91.53
67133;HTU21D;54052;53.542;49.408;2022-10-30T00:27:10;3.19;91.47
67133;HTU21D;54052;53.542;49.408;2022-10-30T00:29:36;3.21;91.55
67133;HTU21D;54052;53.542;49.408;2022-10-30T00:32:02;3.26;91.12
67133;HTU21D;54052;53.542;49.408;2022-10-30T00:34:28;3.33;90.79
67133;HTU21D;54052;53.542;49.408;2022-10-30T00:36:54;3.31;91.10
67133;HTU21D;54052;53.542;49.408;2022-10-30T00:39:20;3.34;90.82
67133;HTU21D;54052;53.542;49.408;2022-10-30T00:41:46;3.28;90.76
67133;HTU21D;54052;53.542;49.408;2022-10-30T00:47:20;3.35;91.06
67133;HTU21D;54052;53.542;49.408;2022-10-30T00:52:30;3.42;90.60
67133;HTU21D;54052;53.542;49.408;2022-10-30T00:55:01;3.42;90.56
67133;HTU21D;54052;53.542;49.408;2022-10-30T00:57:28;3.42;90.59
67133;HTU21D;54052;53.542;49.408;2022-10-30T00:59:54;3.39;91.13
67133;HTU21D;54052;53.542;49.408;2022-10-30T01:02:21;3.48;90.89
67133;HTU21D;54052;53.542;49.408;2022-10-30T01:04:49;3.56;90.16
67133;HTU21D;54052;53.542;49.408;2022-10-30T01:07:16;3.61;90.03
67133;HTU21D;54052;53.542;49.408;2022-10-30T01:09:43;3.63;90.15
67133;HTU21D;54052;53.542;49.408;2022-10-30T01:12:10;3.62;89.89
67133;HTU21D;54052;53.542;49.408;2022-10-30T01:14:39;3.65;89.55
67133;HTU21D;54052;53.542;49.408;2022-10-30T01:17:25;3.68;89.50
67133;HTU21D;54052;53.542;49.408;2022-10-30T01:25:37;3.68;90.12
67133;HTU21D;54052;53.542;49.408;2022-10-30T01:31:46;3.72;89.18
67133;HTU21D;54052;53.542;49.408;2022-10-30T01:33:56;3.65;89.94
67133;HTU21D;54052;53.542;49.408;2022-10-30T01:36:46;3.57;89.88
67133;HTU21D;54052;53.542;49.408;2022-10-30T01:39:17;3.54;90.50
67133;HTU21D;54052;53.542;49.408;2022-10-30T01:41:44;3.62;90.41
67133;HTU21D;54052;53.542;49.408;2022-10-30T01:44:17;3.63;90.04
67133;HTU21D;54052;53.542;49.408;2022-10-30T01:50:34;3.72;89.85
67133;HTU21D;54052;53.542;49.408;2022-10-30T01:53:02;3.63;90.37
67133;HTU21D;54052;53.542;49.408;2022-10-30T01:55:49;3.56;90.63
67133;HTU21D;54052;53.542;49.408;2022-10-30T01:58:27;3.58;90.40
67133;HTU21D;54052;53.542;49.408;2022-10-30T02:00:57;3.61;90.42
67133;HTU21D;54052;53.542;49.408;2022-10-30T02:03:25;3.65;90.07
67133;HTU21D;54052;53.542;49.408;2022-10-30T02:05:52;3.74;89.34
67133;HTU21D;54052;53.542;49.408;2022-10-30T02:08:20;3.72;89.44
67133;HTU21D;54052;53.542;49.408;2022-10-30T02:10:47;3.63;89.90
67133;HTU21D;54052;53.542;49.408;2022-10-30T02:13:14;3.65;89.53
67133;HTU21D;54052;53.542;49.408;2022-10-30T02:15:41;3.68;89.54
67133;HTU21D;54052;53.542;49.408;2022-10-30T02:18:08;3.69;89.12
67133;HTU21D;54052;53.542;49.408;2022-10-30T02:20:34;3.64;89.57
67133;HTU21D;54052;53.542;49.408;2022-10-30T02:23:01;3.62;89.73
67133;HTU21D;54052;53.542;49.408;2022-10-30T02:25:27;3.57;89.80
67133;HTU21D;54052;53.542;49.408;2022-10-30T02:27:53;3.50;90.41
67133;HTU21D;54052;53.542;49.408;2022-10-30T02:30:19;3.45;90.59
67133;HTU21D;54052;53.542;49.408;2022-10-30T02:32:44;3.41;91.34
67133;HTU21D;54052;53.542;49.408;2022-10-30T02:35:11;3.49;91.13
67133;HTU21D;54052;53.542;49.408;2022-10-30T02:37:37;3.53;90.42
67133;HTU21D;54052;53.542;49.408;2022-10-30T02:40:05;3.58;90.28
67133;HTU21D;54052;53.542;49.408;2022-10-30T02:42:33;3.63;89.66
67133;HTU21D;54052;53.542;49.408;2022-10-30T02:44:59;3.64;89.75
67133;HTU21D;54052;53.542;49.408;2022-10-30T02:47:27;3.57;90.00
67133;HTU21D;54052;53.542;49.408;2022-10-30T02:49:53;3.52;89.97
67133;HTU21D;54052;53.542;49.408;2022-10-30T02:52:19;3.50;90.19
67133;HTU21D;54052;53.542;49.408;2022-10-30T02:54:45;3.50;90.54
67133;HTU21D;54052;53.542;49.408;2022-10-30T02:57:11;3.54;90.35
67133;HTU21D;54052;53.542;49.408;2022-10-30T02:59:37;3.52;90.68
67133;HTU21D;54052;53.542;49.408;2022-10-30T03:02:03;3.62;89.54
67133;HTU21D;54052;53.542;49.408;2022-10-30T03:04:29;3.61;89.41
67133;HTU21D;54052;53.542;49.408;2022-10-30T03:06:55;3.49;90.39
67133;HTU21D;54052;53.542;49.408;2022-10-30T03:09:21;3.44;91.70
67133;HTU21D;54052;53.542;49.408;2022-10-30T03:11:47;3.52;91.57
67133;HTU21D;54052;53.542;49.408;2022-10-30T03:14:14;3.61;91.15
67133;HTU21D;54052;53.542;49.408;2022-10-30T03:16:40;3.63;90.98
67133;HTU21D;54052;53.542;49.408;2022-10-30T03:19:06;3.71;90.29
67133;HTU21D;54052;53.542;49.408;2022-10-30T03:21:32;3.69;90.15
67133;HTU21D;54052;53.542;49.408;2022-10-30T03:23:58;3.62;90.37
67133;HTU21D;54052;53.542;49.408;2022-10-30T03:26:24;3.53;91.03
67133;HTU21D;54052;53.542;49.408;2022-10-30T03:28:50;3.56;91.41
67133;HTU21D;54052;53.542;49.408;2022-10-30T03:31:18;3.62;90.73
67133;HTU21D;54052;53.542;49.408;2022-10-30T03:33:44;3.63;90.53
67133;HTU21D;54052;53.542;49.408;2022-10-30T03:36:12;3.61;90.96
67133;HTU21D;54052;53.542;49.408;2022-10-30T03:38:39;3.59;91.13
67133;HTU21D;54052;53.542;49.408;2022-10-30T03:41:05;3.68;91.08
67133;HTU21D;54052;53.542;49.408;2022-10-30T03:43:31;3.71;90.32
67133;HTU21D;54052;53.542;49.408;2022-10-30T03:45:57;3.82;90.28
67133;HTU21D;54052;53.542;49.408;2022-10-30T03:48:26;3.84;90.39
67133;HTU21D;54052;53.542;49.408;2022-10-30T03:50:53;3.88;90.07
67133;HTU21D;54052;53.542;49.408;2022-10-30T03:53:20;3.91;89.23
67133;HTU21D;54052;53.542;49.408;2022-10-30T03:55:47;3.94;88.85
67133;HTU21D;54052;53.542;49.408;2022-10-30T03:58:13;3.91;89.30
67133;HTU21D;54052;53.542;49.408;2022-10-30T04:00:39;3.91;89.51
67133;HTU21D;54052;53.542;49.408;2022-10-30T04:03:07;3.78;90.10
67133;HTU21D;54052;53.542;49.408;2022-10-30T04:05:33;3.78;90.06
67133;HTU21D;54052;53.542;49.408;2022-10-30T04:08:03;3.90;89.94
67133;HTU21D;54052;53.542;49.408;2022-10-30T04:10:29;3.95;89.34
67133;HTU21D;54052;53.542;49.408;2022-10-30T04:13:03;3.95;88.79
67133;HTU21D;54052;53.542;49.408;2022-10-30T04:15:29;4.01;89.28
67133;HTU21D;54052;53.542;49.408;2022-10-30T04:17:56;4.05;89.04
67133;HTU21D;54052;53.542;49.408;2022-10-30T04:20:23;4.13;88.37
67133;HTU21D;54052;53.542;49.408;2022-10-30T04:22:55;4.18;87.70
67133;HTU21D;54052;53.542;49.408;2022-10-30T04:25:22;4.12;87.93
67133;HTU21D;54052;53.542;49.408;2022-10-30T04:27:48;4.15;88.06
67133;HTU21D;54052;53.542;49.408;2022-10-30T04:30:14;4.07;87.60
67133;HTU21D;54052;53.542;49.408;2022-10-30T04:32:51;4.06;88.28
67133;HTU21D;54052;53.542;49.408;2022-10-30T04:35:19;4.07;87.92
67133;HTU21D;54052;53.542;49.408;2022-10-30T04:37:55;4.02;87.72
67133;HTU21D;54052;53.542;49.408;2022-10-30T04:40:23;4.03;88.61
67133;HTU21D;54052;53.542;49.408;2022-10-30T04:42:50;4.10;88.11
67133;HTU21D;54052;53.542;49.408;2022-10-30T04:45:16;4.17;88.01
67133;HTU21D;54052;53.542;49.408;2022-10-30T04:47:42;4.10;88.09
67133;HTU21D;54052;53.542;49.408;2022-10-30T04:50:08;4.06;88.37
67133;HTU21D;54052;53.542;49.408;2022-10-30T04:52:34;4.03;88.26
67133;HTU21D;54052;53.542;49.408;2022-10-30T04:55:01;4.07;87.94
67133;HTU21D;54052;53.542;49.408;2022-10-30T04:57:27;4.10;87.96
67133;HTU21D;54052;53.542;49.408;2022-10-30T04:59:53;4.08;88.02
67133;HTU21D;54052;53.542;49.408;2022-10-30T05:02:19;4.10;87.69
67133;HTU21D;54052;53.542;49.408;2022-10-30T05:04:45;3.98;87.28
67133;HTU21D;54052;53.542;49.408;2022-10-30T05:07:12;3.83;89.07
67133;HTU21D;54052;53.542;49.408;2022-10-30T05:09:38;3.89;88.80
67133;HTU21D;54052;53.542;49.408;2022-10-30T05:12:04;3.86;88.87
67133;HTU21D;54052;53.542;49.408;2022-10-30T05:14:31;3.82;89.60
67133;HTU21D;54052;53.542;49.408;2022-10-30T05:16:57;3.72;89.21
67133;HTU21D;54052;53.542;49.408;2022-10-30T05:19:24;3.67;89.99
67133;HTU21D;54052;53.542;49.408;2022-10-30T05:21:50;3.67;89.73
67133;HTU21D;54052;53.542;49.408;2022-10-30T05:24:17;3.64;89.76
67133;HTU21D;54052;53.542;49.408;2022-10-30T05:26:43;3.61;90.64
67133;HTU21D;54052;53.542;49.408;2022-10-30T05:29:09;3.73;90.43
67133;HTU21D;54052;53.542;49.408;2022-10-30T05:31:35;3.84;89.84
67133;HTU21D;54052;53.542;49.408;2022-10-30T05:34:01;3.91;89.49
67133;HTU21D;54052;53.542;49.408;2022-10-30T05:36:27;4.01;88.77
67133;HTU21D;54052;53.542;49.408;2022-10-30T05:38:53;4.02;89.45
67133;HTU21D;54052;53.542;49.408;2022-10-30T05:41:19;3.99;88.54
67133;HTU21D;54052;53.542;49.408;2022-10-30T05:43:45;4.04;88.34
67133;HTU21D;54052;53.542;49.408;2022-10-30T05:46:11;4.03;88.65
67133;HTU21D;54052;53.542;49.408;2022-10-30T05:48:37;4.01;88.25
67133;HTU21D;54052;53.542;49.408;2022-10-30T05:51:03;4.04;88.36
67133;HTU21D;54052;53.542;49.408;2022-10-30T05:53:31;4.07;87.59
67133;HTU21D;54052;53.542;49.408;2022-10-30T05:55:58;4.04;88.31
67133;HTU21D;54052;53.542;49.408;2022-10-30T05:58:24;4.08;88.20
67133;HTU21D;54052;53.542;49.408;2022-10-30T06:00:51;4.01;88.28
67133;HTU21D;54052;53.542;49.408;2022-10-30T06:03:17;4.08;88.33
67133;HTU21D;54052;53.542;49.408;2022-10-30T06:05:45;4.10;88.22
67133;HTU21D;54052;53.542;49.408;2022-10-30T06:08:11;4.05;88.36
67133;HTU21D;54052;53.542;49.408;2022-10-30T06:10:37;4.07;87.98
67133;HTU21D;54052;53.542;49.408;2022-10-30T06:13:05;4.09;87.86
67133;HTU21D;54052;53.542;49.408;2022-10-30T06:15:32;4.10;88.08
67133;HTU21D;54052;53.542;49.408;2022-10-30T06:17:59;4.10;87.94
67133;HTU21D;54052;53.542;49.408;2022-10-30T06:20:27;4.14;87.80
67133;HTU21D;54052;53.542;49.408;2022-10-30T06:22:56;4.15;87.98
67133;HTU21D;54052;53.542;49.408;2022-10-30T06:25:23;4.17;87.74
67133;HTU21D;54052;53.542;49.408;2022-10-30T06:27:50;4.27;87.62
67133;HTU21D;54052;53.542;49.408;2022-10-30T06:30:16;4.27;87.54
67133;HTU21D;54052;53.542;49.408;2022-10-30T06:32:43;4.27;87.40
67133;HTU21D;54052;53.542;49.408;2022-10-30T06:35:09;4.27;87.65
67133;HTU21D;54052;53.542;49.408;2022-10-30T06:37:35;4.15;87.76
67133;HTU21D;54052;53.542;49.408;2022-10-30T06:40:06;4.10;88.02
67133;HTU21D;54052;53.542;49.408;2022-10-30T06:42:32;4.09;87.96
67133;HTU21D;54052;53.542;49.408;2022-10-30T06:44:58;4.08;87.99
67133;HTU21D;54052;53.542;49.408;2022-10-30T06:47:24;4.12;88.19
67133;HTU21D;54052;53.542;49.408;2022-10-30T06:49:50;4.10;88.88
67133;HTU21D;54052;53.542;49.408;2022-10-30T06:52:16;4.10;88.60
67133;HTU21D;54052;53.542;49.408;2022-10-30T06:54:45;4.15;88.41
67133;HTU21D;54052;53.542;49.408;2022-10-30T06:57:13;4.15;88.35
67133;HTU21D;54052;53.542;49.408;2022-10-30T06:59:39;4.16;88.61
67133;HTU21D;54052;53.542;49.408;2022-10-30T07:02:05;4.17;88.43
67133;HTU21D;54052;53.542;49.408;2022-10-30T07:04:31;4.18;88.42
67133;HTU21D;54052;53.542;49.408;2022-10-30T07:06:57;4.18;88.57
67133;HTU21D;54052;53.542;49.408;2022-10-30T07:09:23;4.23;88.40
67133;HTU21D;54052;53.542;49.408;2022-10-30T07:11:48;4.27;88.13
67133;HTU21D;54052;53.542;49.408;2022-10-30T07:14:14;4.30;87.95
67133;HTU21D;54052;53.542;49.408;2022-10-30T07:16:40;4.23;88.21
67133;HTU21D;54052;53.542;49.408;2022-10-30T07:19:06;4.21;89.02
67133;HTU21D;54052;53.542;49.408;2022-10-30T07:21:32;4.24;88.59
67133;HTU21D;54052;53.542;49.408;2022-10-30T07:23:59;4.27;88.53
67133;HTU21D;54052;53.542;49.408;2022-10-30T07:26:25;4.29;88.91
67133;HTU21D;54052;53.542;49.408;2022-10-30T07:28:51;4.31;88.83
67133;HTU21D;54052;53.542;49.408;2022-10-30T07:31:17;4.32;88.85
67133;HTU21D;54052;53.542;49.408;2022-10-30T07:33:43;4.20;89.72
67133;HTU21D;54052;53.542;49.408;2022-10-30T07:36:09;4.26;89.66
67133;HTU21D;54052;53.542;49.408;2022-10-30T07:38:35;4.27;89.19
67133;HTU21D;54052;53.542;49.408;2022-10-30T07:41:01;4.27;89.41
67133;HTU21D;54052;53.542;49.408;2022-10-30T07:43:27;4.22;89.93
67133;HTU21D;54052;53.542;49.408;2022-10-30T07:45:53;4.21;89.83
67133;HTU21D;54052;53.542;49.408;2022-10-30T07:48:20;4.24;90.42
67133;HTU21D;54052;53.542;49.408;2022-10-30T07:50:46;4.22;90.76
67133;HTU21D;54052;53.542;49.408;2022-10-30T07:53:12;4.30;90.04
67133;HTU21D;54052;53.542;49.408;2022-10-30T07:55:38;4.34;90.02
67133;HTU21D;54052;53.542;49.408;2022-10-30T07:58:04;4.32;90.02
67133;HTU21D;54052;53.542;49.408;2022-10-30T08:00:30;4.33;90.12
67133;HTU21D;54052;53.542;49.408;2022-10-30T08:02:56;4.30;89.94
67133;HTU21D;54052;53.542;49.408;2022-10-30T08:05:23;4.27;90.55
67133;HTU21D;54052;53.542;49.408;2022-10-30T08:07:49;4.24;90.28
67133;HTU21D;54052;53.542;49.408;2022-10-30T08:10:15;4.23;90.78
67133;HTU21D;54052;53.542;49.408;2022-10-30T08:12:41;4.32;91.23
67133;HTU21D;54052;53.542;49.408;2022-10-30T08:15:09;4.33;90.55
67133;HTU21D;54052;53.542;49.408;2022-10-30T08:17:43;4.34;90.67
67133;HTU21D;54052;53.542;49.408;2022-10-30T08:20:11;4.39;90.81
67133;HTU21D;54052;53.542;49.408;2022-10-30T08:25:14;4.54;90.14
67133;HTU21D;54052;53.542;49.408;2022-10-30T08:28:06;4.56;89.55
67133;HTU21D;54052;53.542;49.408;2022-10-30T08:30:34;4.57;89.91
67133;HTU21D;54052;53.542;49.408;2022-10-30T08:33:02;4.60;89.94
67133;HTU21D;54052;53.542;49.408;2022-10-30T08:35:29;4.63;90.03
67133;HTU21D;54052;53.542;49.408;2022-10-30T08:37:55;4.72;89.49
67133;HTU21D;54052;53.542;49.408;2022-10-30T08:40:22;4.75;89.04
67133;HTU21D;54052;53.542;49.408;2022-10-30T08:42:55;4.79;88.67
67133;HTU21D;54052;53.542;49.408;2022-10-30T08:45:21;4.83;88.86
67133;HTU21D;54052;53.542;49.408;2022-10-30T08:47:55;4.97;88.71
67133;HTU21D;54052;53.542;49.408;2022-10-30T08:50:21;5.03;87.22
67133;HTU21D;54052;53.542;49.408;2022-10-30T08:52:47;5.06;87.28
67133;HTU21D;54052;53.542;49.408;2022-10-30T08:55:13;5.05;87.73
67133;HTU21D;54052;53.542;49.408;2022-10-30T08:57:39;5.06;87.48
67133;HTU21D;54052;53.542;49.408;2022-10-30T09:00:06;5.03;87.35
67133;HTU21D;54052;53.542;49.408;2022-10-30T09:02:33;4.97;87.86
67133;HTU21D;54052;53.542;49.408;2022-10-30T09:05:00;4.95;87.95
67133;HTU21D;54052;53.542;49.408;2022-10-30T09:07:25;5.00;88.14
67133;HTU21D;54052;53.542;49.408;2022-10-30T09:09:51;5.04;88.26
67133;HTU21D;54052;53.542;49.408;2022-10-30T09:12:18;5.10;88.27
67133;HTU21D;54052;53.542;49.408;2022-10-30T09:14:44;5.12;88.43
67133;HTU21D;54052;53.542;49.408;2022-10-30T09:17:10;5.15;87.89
67133;HTU21D;54052;53.542;49.408;2022-10-30T09:19:36;5.15;87.92
67133;HTU21D;54052;53.542;49.408;2022-10-30T09:22:02;5.02;88.74
67133;HTU21D;54052;53.542;49.408;2022-10-30T09:24:28;5.01;89.66
67133;HTU21D;54052;53.542;49.408;2022-10-30T09:26:54;5.02;89.52
67133;HTU21D;54052;53.542;49.408;2022-10-30T09:29:21;4.98;89.06
67133;HTU21D;54052;53.542;49.408;2022-10-30T09:31:47;4.96;89.79
67133;HTU21D;54052;53.542;49.408;2022-10-30T09:34:13;5.05;89.92
67133;HTU21D;54052;53.542;49.408;2022-10-30T09:36:39;5.09;89.00
67133;HTU21D;54052;53.542;49.408;2022-10-30T09:39:05;5.11;89.30
67133;HTU21D;54052;53.542;49.408;2022-10-30T10:00:19;5.13;88.67
67133;HTU21D;54052;53.542;49.408;2022-10-30T10:05:43;5.23;88.35
67133;HTU21D;54052;53.542;49.408;2022-10-30T10:08:18;5.28;88.84
67133;HTU21D;54052;53.542;49.408;2022-10-30T10:10:49;5.39;88.73
67133;HTU21D;54052;53.542;49.408;2022-10-30T10:15:49;5.66;87.78
67133;HTU21D;54052;53.542;49.408;2022-10-30T10:18:20;5.72;86.83
67133;HTU21D;54052;53.542;49.408;2022-10-30T10:20:51;5.76;86.73
67133;HTU21D;54052;53.542;49.408;2022-10-30T10:23:40;5.81;86.85
67133;HTU21D;54052;53.542;49.408;2022-10-30T10:26:30;5.95;85.58
67133;HTU21D;54052;53.542;49.408;2022-10-30T10:29:20;5.72;86.79
67133;HTU21D;54052;53.542;49.408;2022-10-30T10:41:01;5.50;88.60
67133;HTU21D;54052;53.542;49.408;2022-10-30T10:43:57;5.52;88.68
67133;HTU21D;54052;53.542;49.408;2022-10-30T10:46:41;5.55;88.83
67133;HTU21D;54052;53.542;49.408;2022-10-30T10:54:49;5.54;89.09
67133;HTU21D;54052;53.542;49.408;2022-10-30T10:57:35;5.52;89.22
67133;HTU21D;54052;53.542;49.408;2022-10-30T11:00:07;5.49;89.15
67133;HTU21D;54052;53.542;49.408;2022-10-30T11:02:44;5.50;89.57
67133;HTU21D;54052;53.542;49.408;2022-10-30T11:05:34;5.56;89.68
67133;HTU21D;54052;53.542;49.408;2022-10-30T11:08:21;5.64;89.14
67133;HTU21D;54052;53.542;49.408;2022-10-30T11:10:55;5.68;89.37
67133;HTU21D;54052;53.542;49.408;2022-10-30T11:13:43;5.68;89.13
67133;HTU21D;54052;53.542;49.408;2022-10-30T11:16:32;5.66;89.15
67133;HTU21D;54052;53.542;49.408;2022-10-30T11:19:04;5.62;89.81
67133;HTU21D;54052;53.542;49.408;2022-10-30T11:21:37;5.61;89.58
67133;HTU21D;54052;53.542;49.408;2022-10-30T11:24:33;5.61;89.58
67133;HTU21D;54052;53.542;49.408;2022-10-30T11:27:16;5.57;90.08
67133;HTU21D;54052;53.542;49.408;2022-10-30T11:29:59;5.56;90.27
67133;HTU21D;54052;53.542;49.408;2022-10-30T11:32:28;5.57;90.25
67133;HTU21D;54052;53.542;49.408;2022-10-30T11:35:10;5.55;90.59
67133;HTU21D;54052;53.542;49.408;2022-10-30T11:37:39;5.55;90.73
67133;HTU21D;54052;53.542;49.408;2022-10-30T11:45:35;5.56;90.22
67133;HTU21D;54052;53.542;49.408;2022-10-30T11:48:09;5.60;90.08
67133;HTU21D;54052;53.542;49.408;2022-10-30T11:50:36;5.59;90.44
67133;HTU21D;54052;53.542;49.408;2022-10-30T11:53:10;5.57;90.54
67133;HTU21D;54052;53.542;49.408;2022-10-30T11:55:38;5.59;90.53
67133;HTU21D;54052;53.542;49.408;2022-10-30T11:58:06;5.57;90.69
67133;HTU21D;54052;53.542;49.408;2022-10-30T12:00:36;5.62;90.58
67133;HTU21D;54052;53.542;49.408;2022-10-30T12:03:28;5.64;91.08
67133;HTU21D;54052;53.542;49.408;2022-10-30T12:08:32;5.81;90.72
67133;HTU21D;54052;53.542;49.408;2022-10-30T12:11:01;5.83;90.53
67133;HTU21D;54052;53.542;49.408;2022-10-30T12:13:33;5.84;90.44
67133;HTU21D;54052;53.542;49.408;2022-10-30T12:16:13;5.82;90.76
67133;HTU21D;54052;53.542;49.408;2022-10-30T12:18:40;5.81;90.54
67133;HTU21D;54052;53.542;49.408;2022-10-30T12:21:06;5.82;91.08
67133;HTU21D;54052;53.542;49.408;2022-10-30T12:23:33;5.86;91.02
67133;HTU21D;54052;53.542;49.408;2022-10-30T12:26:08;5.85;90.87
67133;HTU21D;54052;53.542;49.408;2022-10-30T12:28:35;5.80;91.61
67133;HTU21D;54052;53.542;49.408;2022-10-30T12:31:18;5.81;92.06
67133;HTU21D;54052;53.542;49.408;2022-10-30T12:34:01;5.83;92.34
67133;HTU21D;54052;53.542;49.408;2022-10-30T12:36:34;5.87;92.02
67133;HTU21D;54052;53.542;49.408;2022-10-30T12:39:02;5.85;92.11
67133;HTU21D;54052;53.542;49.408;2022-10-30T12:41:42;5.89;92.07
67133;HTU21D;54052;53.542;49.408;2022-10-30T12:50:00;5.93;92.24
67133;HTU21D;54052;53.542;49.408;2022-10-30T12:52:36;5.98;92.09
67133;HTU21D;54052;53.542;49.408;2022-10-30T12:55:33;6.02;91.88
67133;HTU21D;54052;53.542;49.408;2022-10-30T13:00:44;5.95;92.10
67133;HTU21D;54052;53.542;49.408;2022-10-30T13:03:45;5.97;92.55
67133;HTU21D;54052;53.542;49.408;2022-10-30T13:06:21;6.07;92.22
67133;HTU21D;54052;53.542;49.408;2022-10-30T13:09:26;6.12;91.76
67133;HTU21D;54052;53.542;49.408;2022-10-30T13:12:07;6.15;91.56
67133;HTU21D;54052;53.542;49.408;2022-10-30T13:14:39;6.20;91.65
67133;HTU21D;54052;53.542;49.408;2022-10-30T13:17:13;6.24;91.74
67133;HTU21D;54052;53.542;49.408;2022-10-30T13:19:39;6.22;92.08
67133;HTU21D;54052;53.542;49.408;2022-10-30T13:25:07;6.31;91.66
67133;HTU21D;54052;53.542;49.408;2022-10-30T13:30:53;6.38;91.85
67133;HTU21D;54052;53.542;49.408;2022-10-30T13:36:26;6.41;91.88
67133;HTU21D;54052;53.542;49.408;2022-10-30T13:47:23;6.42;93.04
67133;HTU21D;54052;53.542;49.408;2022-10-30T13:52:46;6.48;92.86
67133;HTU21D;54052;53.542;49.408;2022-10-30T13:55:20;6.53;92.60
67133;HTU21D;54052;53.542;49.408;2022-10-30T14:09:37;6.51;93.49
67133;HTU21D;54052;53.542;49.408;2022-10-30T14:21:27;6.59;93.86
67133;HTU21D;54052;53.542;49.408;2022-10-30T14:23:45;6.63;93.82
67133;HTU21D;54052;53.542;49.408;2022-10-30T14:26:12;6.60;93.77
67133;HTU21D;54052;53.542;49.408;2022-10-30T14:28:41;6.63;93.89
67133;HTU21D;54052;53.542;49.408;2022-10-30T14:31:10;6.68;93.92
67133;HTU21D;54052;53.542;49.408;2022-10-30T14:33:52;6.73;93.86
67133;HTU21D;54052;53.542;49.408;2022-10-30T14:36:25;6.79;93.46
67133;HTU21D;54052;53.542;49.408;2022-10-30T14:45:02;6.80;93.80
67133;HTU21D;54052;53.542;49.408;2022-10-30T14:47:54;6.89;93.62
67133;HTU21D;54052;53.542;49.408;2022-10-30T14:53:04;7.01;93.05
67133;HTU21D;54052;53.542;49.408;2022-10-30T14:58:28;7.13;92.95
67133;HTU21D;54052;53.542;49.408;2022-10-30T15:06:23;7.18;92.68
67133;HTU21D;54052;53.542;49.408;2022-10-30T15:14:44;7.31;92.53
67133;HTU21D;54052;53.542;49.408;2022-10-30T15:17:52;7.38;92.53
67133;HTU21D;54052;53.542;49.408;2022-10-30T15:20:20;7.39;92.53
67133;HTU21D;54052;53.542;49.408;2022-10-30T15:23:01;7.35;92.34
67133;HTU21D;54052;53.542;49.408;2022-10-30T15:25:34;7.31;92.87
67133;HTU21D;54052;53.542;49.408;2022-10-30T15:28:03;7.28;93.46
67133;HTU21D;54052;53.542;49.408;2022-10-30T15:30:29;7.31;93.62
67133;HTU21D;54052;53.542;49.408;2022-10-30T15:32:55;7.32;93.88
67133;HTU21D;54052;53.542;49.408;2022-10-30T15:35:26;7.34;94.08
67133;HTU21D;54052;53.542;49.408;2022-10-30T15:37:57;7.35;93.89
67133;HTU21D;54052;53.542;49.408;2022-10-30T15:40:23;7.37;93.97
67133;HTU21D;54052;53.542;49.408;2022-10-30T15:42:50;7.39;94.11
67133;HTU21D;54052;53.542;49.408;2022-10-30T15:45:27;7.43;93.81
67133;HTU21D;54052;53.542;49.408;2022-10-30T15:47:59;7.40;94.16
67133;HTU21D;54052;53.542;49.408;2022-10-30T15:50:26;7.44;94.31
67133;HTU21D;54052;53.542;49.408;2022-10-30T15:52:52;7.44;94.40
67133;HTU21D;54052;53.542;49.408;2022-10-30T15:55:24;7.44;94.48
67133;HTU21D;54052;53.542;49.408;2022-10-30T15:57:51;7.49;94.41
67133;HTU21D;54052;53.542;49.408;2022-10-30T16:05:39;7.58;94.05
67133;HTU21D;54052;53.542;49.408;2022-10-30T16:08:23;7.57;94.43
67133;HTU21D;54052;53.542;49.408;2022-10-30T16:10:52;7.65;94.23
67133;HTU21D;54052;53.542;49.408;2022-10-30T16:13:27;7.64;94.20
67133;HTU21D;54052;53.542;49.408;2022-10-30T16:15:54;7.62;94.69
67133;HTU21D;54052;53.542;49.408;2022-10-30T16:18:29;7.68;94.46
67133;HTU21D;54052;53.542;49.408;2022-10-30T16:21:06;7.63;94.82
67133;HTU21D;54052;53.542;49.408;2022-10-30T16:23:38;7.64;94.59
67133;HTU21D;54052;53.542;49.408;2022-10-30T16:26:05;7.62;94.95
67133;HTU21D;54052;53.542;49.408;2022-10-30T16:28:36;7.67;95.12
67133;HTU21D;54052;53.542;49.408;2022-10-30T16:31:07;7.71;95.06
67133;HTU21D;54052;53.542;49.408;2022-10-30T16:33:40;7.72;94.77
67133;HTU21D;54052;53.542;49.408;2022-10-30T16:36:10;7.70;95.10
67133;HTU21D;54052;53.542;49.408;2022-10-30T16:38:39;7.70;95.53
67133;HTU21D;54052;53.542;49.408;2022-10-30T16:41:07;7.75;95.60
67133;HTU21D;54052;53.542;49.408;2022-10-30T16:43:39;7.75;95.50
67133;HTU21D;54052;53.542;49.408;2022-10-30T16:46:29;7.74;95.46
67133;HTU21D;54052;53.542;49.408;2022-10-30T16:48:57;7.79;95.55
67133;HTU21D;54052;53.542;49.408;2022-10-30T16:51:24;7.82;95.32
67133;HTU21D;54052;53.542;49.408;2022-10-30T16:53:51;7.86;95.62
67133;HTU21D;54052;53.542;49.408;2022-10-30T16:56:25;7.96;95.20
67133;HTU21D;54052;53.542;49.408;2022-10-30T16:58:54;7.98;95.07
67133;HTU21D;54052;53.542;49.408;2022-10-30T17:01:26;7.94;95.23
67133;HTU21D;54052;53.542;49.408;2022-10-30T17:03:53;7.97;95.02
67133;HTU21D;54052;53.542;49.408;2022-10-30T17:06:36;7.96;95.49
67133;HTU21D;54052;53.542;49.408;2022-10-30T17:09:25;7.92;95.68
67133;HTU21D;54052;53.542;49.408;2022-10-30T17:14:50;8.03;95.62
67133;HTU21D;54052;53.542;49.408;2022-10-30T17:17:27;8.08;95.04
67133;HTU21D;54052;53.542;49.408;2022-10-30T17:22:38;8.19;95.04
67133;HTU21D;54052;53.542;49.408;2022-10-30T17:25:23;8.21;94.74
67133;HTU21D;54052;53.542;49.408;2022-10-30T17:27:52;8.27;94.74
67133;HTU21D;54052;53.542;49.408;2022-10-30T17:30:32;8.31;94.46
67133;HTU21D;54052;53.542;49.408;2022-10-30T17:33:00;8.30;94.49
67133;HTU21D;54052;53.542;49.408;2022-10-30T17:35:27;8.36;94.69
67133;HTU21D;54052;53.542;49.408;2022-10-30T17:37:53;8.36;94.08
67133;HTU21D;54052;53.542;49.408;2022-10-30T17:40:19;8.35;94.15
67133;HTU21D;54052;53.542;49.408;2022-10-30T17:42:45;8.29;94.43
67133;HTU21D;54052;53.542;49.408;2022-10-30T17:45:15;8.31;94.65
67133;HTU21D;54052;53.542;49.408;2022-10-30T17:47:42;8.33;94.71
67133;HTU21D;54052;53.542;49.408;2022-10-30T17:50:08;8.39;94.45
67133;HTU21D;54052;53.542;49.408;2022-10-30T17:52:34;8.42;94.30
67133;HTU21D;54052;53.542;49.408;2022-10-30T17:55:01;8.41;94.40
67133;HTU21D;54052;53.542;49.408;2022-10-30T17:57:27;8.44;94.23
67133;HTU21D;54052;53.542;49.408;2022-10-30T17:59:53;8.50;94.01
67133;HTU21D;54052;53.542;49.408;2022-10-30T18:02:21;8.53;93.50